sensor_id;sensor_type;location;lat;lon;timestamp;P1;durP1;ratioP1;P2;durP2;ratioP2
62848;SDS011;48941;49.516;8.286;2024-01-27T00:00:38;7.90;;;2.63;;
62848;SDS011;48941;49.516;8.286;2024-01-27T00:03:08;8.80;;;3.38;;
62848;SDS011;48941;49.516;8.286;2024-01-27T00:05:36;7.75;;;3.22;;
62848;SDS011;48941;49.516;8.286;2024-01-27T00:08:03;6.75;;;3.03;;
62848;SDS011;48941;49.516;8.286;2024-01-27T00:10:31;6.70;;;2.65;;
62848;SDS011;48941;49.516;8.286;2024-01-27T00:12:59;9.82;;;2.97;;
62848;SDS011;48941;49.516;8.286;2024-01-27T00:15:27;8.35;;;3.05;;
62848;SDS011;48941;49.516;8.286;2024-01-27T00:17:54;7.47;;;2.78;;
62848;SDS011;48941;49.516;8.286;2024-01-27T00:20:23;7.15;;;2.75;;
62848;SDS011;48941;49.516;8.286;2024-01-27T00:22:51;10.07;;;2.90;;
62848;SDS011;48941;49.516;8.286;2024-01-27T00:25:19;16.13;;;3.03;;
62848;SDS011;48941;49.516;8.286;2024-01-27T00:27:47;7.85;;;3.03;;
62848;SDS011;48941;49.516;8.286;2024-01-27T00:30:15;7.32;;;2.70;;
62848;SDS011;48941;49.516;8.286;2024-01-27T00:32:43;4.82;;;2.28;;
62848;SDS011;48941;49.516;8.286;2024-01-27T00:35:11;7.15;;;2.45;;
62848;SDS011;48941;49.516;8.286;2024-01-27T00:37:42;7.57;;;2.95;;
62848;SDS011;48941;49.516;8.286;2024-01-27T00:40:10;6.40;;;2.67;;
62848;SDS011;48941;49.516;8.286;2024-01-27T00:42:40;11.30;;;3.30;;
62848;SDS011;48941;49.516;8.286;2024-01-27T00:45:08;8.70;;;2.70;;
62848;SDS011;48941;49.516;8.286;2024-01-27T00:47:36;6.97;;;3.00;;
62848;SDS011;48941;49.516;8.286;2024-01-27T00:50:04;5.28;;;2.60;;
62848;SDS011;48941;49.516;8.286;2024-01-27T00:52:34;8.43;;;2.47;;
62848;SDS011;48941;49.516;8.286;2024-01-27T00:55:04;15.00;;;3.20;;
62848;SDS011;48941;49.516;8.286;2024-01-27T00:57:32;12.25;;;2.60;;
62848;SDS011;48941;49.516;8.286;2024-01-27T01:00:00;10.32;;;2.90;;
62848;SDS011;48941;49.516;8.286;2024-01-27T01:02:29;7.20;;;2.45;;
62848;SDS011;48941;49.516;8.286;2024-01-27T01:04:56;7.10;;;2.50;;
62848;SDS011;48941;49.516;8.286;2024-01-27T01:07:24;8.18;;;2.33;;
62848;SDS011;48941;49.516;8.286;2024-01-27T01:09:52;7.65;;;3.25;;
62848;SDS011;48941;49.516;8.286;2024-01-27T01:12:21;7.75;;;2.53;;
62848;SDS011;48941;49.516;8.286;2024-01-27T01:14:49;6.75;;;2.33;;
62848;SDS011;48941;49.516;8.286;2024-01-27T01:17:17;9.55;;;2.80;;
62848;SDS011;48941;49.516;8.286;2024-01-27T01:19:45;5.82;;;2.45;;
62848;SDS011;48941;49.516;8.286;2024-01-27T01:22:13;9.82;;;3.10;;
62848;SDS011;48941;49.516;8.286;2024-01-27T01:24:40;8.43;;;3.10;;
62848;SDS011;48941;49.516;8.286;2024-01-27T01:27:08;5.88;;;2.45;;
62848;SDS011;48941;49.516;8.286;2024-01-27T01:29:37;7.50;;;2.65;;
62848;SDS011;48941;49.516;8.286;2024-01-27T01:32:05;10.80;;;2.65;;
62848;SDS011;48941;49.516;8.286;2024-01-27T01:34:33;6.88;;;2.40;;
62848;SDS011;48941;49.516;8.286;2024-01-27T01:37:02;7.47;;;3.05;;
62848;SDS011;48941;49.516;8.286;2024-01-27T01:39:30;15.00;;;3.78;;
62848;SDS011;48941;49.516;8.286;2024-01-27T01:41:58;10.50;;;4.28;;
62848;SDS011;48941;49.516;8.286;2024-01-27T01:44:28;15.13;;;4.50;;
62848;SDS011;48941;49.516;8.286;2024-01-27T01:46:59;9.80;;;3.53;;
62848;SDS011;48941;49.516;8.286;2024-01-27T01:49:27;11.25;;;4.32;;
62848;SDS011;48941;49.516;8.286;2024-01-27T01:51:55;9.57;;;3.70;;
62848;SDS011;48941;49.516;8.286;2024-01-27T01:54:23;13.95;;;3.53;;
62848;SDS011;48941;49.516;8.286;2024-01-27T01:56:54;14.65;;;3.90;;
62848;SDS011;48941;49.516;8.286;2024-01-27T01:59:23;6.72;;;2.70;;
62848;SDS011;48941;49.516;8.286;2024-01-27T02:01:51;11.45;;;3.45;;
62848;SDS011;48941;49.516;8.286;2024-01-27T02:04:20;11.20;;;3.38;;
62848;SDS011;48941;49.516;8.286;2024-01-27T02:06:47;13.10;;;3.40;;
62848;SDS011;48941;49.516;8.286;2024-01-27T02:09:15;7.63;;;3.22;;
62848;SDS011;48941;49.516;8.286;2024-01-27T02:11:43;7.10;;;3.05;;
62848;SDS011;48941;49.516;8.286;2024-01-27T02:14:11;10.02;;;2.85;;
62848;SDS011;48941;49.516;8.286;2024-01-27T02:16:39;7.55;;;3.05;;
62848;SDS011;48941;49.516;8.286;2024-01-27T02:19:07;12.23;;;2.60;;
62848;SDS011;48941;49.516;8.286;2024-01-27T02:21:37;7.95;;;2.95;;
62848;SDS011;48941;49.516;8.286;2024-01-27T02:24:08;5.18;;;2.55;;
62848;SDS011;48941;49.516;8.286;2024-01-27T02:26:36;9.50;;;2.75;;
62848;SDS011;48941;49.516;8.286;2024-01-27T02:29:04;11.45;;;3.08;;
62848;SDS011;48941;49.516;8.286;2024-01-27T02:31:32;20.00;;;3.20;;
62848;SDS011;48941;49.516;8.286;2024-01-27T02:34:00;8.57;;;2.75;;
62848;SDS011;48941;49.516;8.286;2024-01-27T02:36:28;12.75;;;2.92;;
62848;SDS011;48941;49.516;8.286;2024-01-27T02:38:56;6.90;;;2.50;;
62848;SDS011;48941;49.516;8.286;2024-01-27T02:41:25;8.88;;;2.38;;
62848;SDS011;48941;49.516;8.286;2024-01-27T02:43:53;8.38;;;2.20;;
62848;SDS011;48941;49.516;8.286;2024-01-27T02:46:21;8.90;;;2.53;;
62848;SDS011;48941;49.516;8.286;2024-01-27T02:48:48;7.28;;;2.22;;
62848;SDS011;48941;49.516;8.286;2024-01-27T02:51:18;7.45;;;2.65;;
62848;SDS011;48941;49.516;8.286;2024-01-27T02:53:47;11.43;;;3.97;;
62848;SDS011;48941;49.516;8.286;2024-01-27T02:56:15;10.05;;;4.03;;
62848;SDS011;48941;49.516;8.286;2024-01-27T02:58:44;11.60;;;4.85;;
62848;SDS011;48941;49.516;8.286;2024-01-27T03:01:12;8.75;;;3.40;;
62848;SDS011;48941;49.516;8.286;2024-01-27T03:03:40;7.90;;;3.20;;
62848;SDS011;48941;49.516;8.286;2024-01-27T03:06:08;10.77;;;3.05;;
62848;SDS011;48941;49.516;8.286;2024-01-27T03:08:36;16.77;;;2.80;;
62848;SDS011;48941;49.516;8.286;2024-01-27T03:11:04;5.53;;;2.92;;
62848;SDS011;48941;49.516;8.286;2024-01-27T03:13:32;7.38;;;3.55;;
62848;SDS011;48941;49.516;8.286;2024-01-27T03:16:01;7.72;;;3.33;;
62848;SDS011;48941;49.516;8.286;2024-01-27T03:18:29;8.55;;;2.70;;
62848;SDS011;48941;49.516;8.286;2024-01-27T03:20:57;12.93;;;3.38;;
62848;SDS011;48941;49.516;8.286;2024-01-27T03:23:24;6.22;;;2.75;;
62848;SDS011;48941;49.516;8.286;2024-01-27T03:25:52;7.30;;;3.22;;
62848;SDS011;48941;49.516;8.286;2024-01-27T03:28:20;8.43;;;2.88;;
62848;SDS011;48941;49.516;8.286;2024-01-27T03:30:48;10.55;;;3.05;;
62848;SDS011;48941;49.516;8.286;2024-01-27T03:33:18;10.98;;;2.95;;
62848;SDS011;48941;49.516;8.286;2024-01-27T03:35:45;9.20;;;2.90;;
62848;SDS011;48941;49.516;8.286;2024-01-27T03:38:13;11.40;;;3.30;;
62848;SDS011;48941;49.516;8.286;2024-01-27T03:40:41;8.02;;;3.10;;
62848;SDS011;48941;49.516;8.286;2024-01-27T03:43:09;11.10;;;3.00;;
62848;SDS011;48941;49.516;8.286;2024-01-27T03:45:37;8.02;;;2.90;;
62848;SDS011;48941;49.516;8.286;2024-01-27T03:48:05;7.43;;;2.53;;
62848;SDS011;48941;49.516;8.286;2024-01-27T03:50:35;9.40;;;3.25;;
62848;SDS011;48941;49.516;8.286;2024-01-27T03:53:03;10.15;;;2.90;;
62848;SDS011;48941;49.516;8.286;2024-01-27T03:55:31;12.00;;;2.92;;
62848;SDS011;48941;49.516;8.286;2024-01-27T03:58:00;8.25;;;3.20;;
62848;SDS011;48941;49.516;8.286;2024-01-27T04:00:28;13.90;;;4.25;;
62848;SDS011;48941;49.516;8.286;2024-01-27T04:02:59;11.18;;;3.25;;
62848;SDS011;48941;49.516;8.286;2024-01-27T04:05:29;10.18;;;4.70;;
62848;SDS011;48941;49.516;8.286;2024-01-27T04:07:59;12.88;;;3.53;;
62848;SDS011;48941;49.516;8.286;2024-01-27T04:10:27;13.02;;;3.63;;
62848;SDS011;48941;49.516;8.286;2024-01-27T04:12:54;6.38;;;2.90;;
62848;SDS011;48941;49.516;8.286;2024-01-27T04:15:22;7.00;;;2.70;;
62848;SDS011;48941;49.516;8.286;2024-01-27T04:17:50;8.43;;;3.17;;
62848;SDS011;48941;49.516;8.286;2024-01-27T04:20:18;10.13;;;3.08;;
62848;SDS011;48941;49.516;8.286;2024-01-27T04:22:46;15.38;;;3.47;;
62848;SDS011;48941;49.516;8.286;2024-01-27T04:25:15;11.45;;;2.97;;
62848;SDS011;48941;49.516;8.286;2024-01-27T04:27:43;10.23;;;2.95;;
62848;SDS011;48941;49.516;8.286;2024-01-27T04:30:11;5.40;;;2.55;;
62848;SDS011;48941;49.516;8.286;2024-01-27T04:32:40;8.75;;;2.42;;
62848;SDS011;48941;49.516;8.286;2024-01-27T04:35:08;10.20;;;3.08;;
62848;SDS011;48941;49.516;8.286;2024-01-27T04:37:37;6.03;;;2.85;;
62848;SDS011;48941;49.516;8.286;2024-01-27T04:40:06;10.02;;;2.70;;
62848;SDS011;48941;49.516;8.286;2024-01-27T04:42:37;6.55;;;3.08;;
62848;SDS011;48941;49.516;8.286;2024-01-27T04:45:05;8.50;;;2.95;;
62848;SDS011;48941;49.516;8.286;2024-01-27T04:47:35;8.98;;;3.08;;
62848;SDS011;48941;49.516;8.286;2024-01-27T04:50:03;9.18;;;3.05;;
62848;SDS011;48941;49.516;8.286;2024-01-27T04:52:31;8.75;;;2.90;;
62848;SDS011;48941;49.516;8.286;2024-01-27T04:54:59;10.05;;;3.22;;
62848;SDS011;48941;49.516;8.286;2024-01-27T04:57:26;8.32;;;2.80;;
62848;SDS011;48941;49.516;8.286;2024-01-27T04:59:56;7.38;;;3.25;;
62848;SDS011;48941;49.516;8.286;2024-01-27T05:02:23;12.38;;;4.07;;
62848;SDS011;48941;49.516;8.286;2024-01-27T05:04:51;7.20;;;3.75;;
62848;SDS011;48941;49.516;8.286;2024-01-27T05:07:19;14.48;;;4.82;;
62848;SDS011;48941;49.516;8.286;2024-01-27T05:09:48;10.63;;;3.72;;
62848;SDS011;48941;49.516;8.286;2024-01-27T05:12:16;12.00;;;3.65;;
62848;SDS011;48941;49.516;8.286;2024-01-27T05:14:43;9.43;;;4.18;;
62848;SDS011;48941;49.516;8.286;2024-01-27T05:17:13;7.25;;;3.72;;
62848;SDS011;48941;49.516;8.286;2024-01-27T05:19:41;10.75;;;4.03;;
62848;SDS011;48941;49.516;8.286;2024-01-27T05:22:09;7.88;;;3.22;;
62848;SDS011;48941;49.516;8.286;2024-01-27T05:24:36;8.43;;;3.60;;
62848;SDS011;48941;49.516;8.286;2024-01-27T05:27:04;8.98;;;3.50;;
62848;SDS011;48941;49.516;8.286;2024-01-27T05:29:32;15.07;;;4.05;;
62848;SDS011;48941;49.516;8.286;2024-01-27T05:32:00;8.88;;;3.45;;
62848;SDS011;48941;49.516;8.286;2024-01-27T05:34:29;9.60;;;3.53;;
62848;SDS011;48941;49.516;8.286;2024-01-27T05:36:57;5.82;;;2.90;;
62848;SDS011;48941;49.516;8.286;2024-01-27T05:39:25;9.00;;;3.30;;
62848;SDS011;48941;49.516;8.286;2024-01-27T05:41:53;8.57;;;3.30;;
62848;SDS011;48941;49.516;8.286;2024-01-27T05:44:20;9.23;;;2.88;;
62848;SDS011;48941;49.516;8.286;2024-01-27T05:46:48;10.57;;;3.13;;
62848;SDS011;48941;49.516;8.286;2024-01-27T05:49:16;10.15;;;3.60;;
62848;SDS011;48941;49.516;8.286;2024-01-27T05:51:46;11.15;;;3.40;;
62848;SDS011;48941;49.516;8.286;2024-01-27T05:54:14;7.95;;;3.75;;
62848;SDS011;48941;49.516;8.286;2024-01-27T05:56:43;8.20;;;3.25;;
62848;SDS011;48941;49.516;8.286;2024-01-27T05:59:11;10.75;;;4.18;;
62848;SDS011;48941;49.516;8.286;2024-01-27T06:01:39;10.10;;;3.80;;
62848;SDS011;48941;49.516;8.286;2024-01-27T06:04:07;11.68;;;5.45;;
62848;SDS011;48941;49.516;8.286;2024-01-27T06:06:37;6.85;;;3.40;;
62848;SDS011;48941;49.516;8.286;2024-01-27T06:09:07;8.40;;;3.35;;
62848;SDS011;48941;49.516;8.286;2024-01-27T06:11:37;8.50;;;3.13;;
62848;SDS011;48941;49.516;8.286;2024-01-27T06:14:05;7.13;;;3.28;;
62848;SDS011;48941;49.516;8.286;2024-01-27T06:16:33;12.60;;;3.85;;
62848;SDS011;48941;49.516;8.286;2024-01-27T06:19:02;7.55;;;3.70;;
62848;SDS011;48941;49.516;8.286;2024-01-27T06:21:30;12.73;;;4.25;;
62848;SDS011;48941;49.516;8.286;2024-01-27T06:23:58;7.30;;;3.65;;
62848;SDS011;48941;49.516;8.286;2024-01-27T06:26:27;8.98;;;4.05;;
62848;SDS011;48941;49.516;8.286;2024-01-27T06:28:55;10.43;;;3.85;;
62848;SDS011;48941;49.516;8.286;2024-01-27T06:31:23;9.05;;;3.70;;
62848;SDS011;48941;49.516;8.286;2024-01-27T06:33:51;10.60;;;4.90;;
62848;SDS011;48941;49.516;8.286;2024-01-27T06:36:18;11.43;;;3.70;;
62848;SDS011;48941;49.516;8.286;2024-01-27T06:38:49;9.88;;;3.42;;
62848;SDS011;48941;49.516;8.286;2024-01-27T06:41:17;9.32;;;3.40;;
62848;SDS011;48941;49.516;8.286;2024-01-27T06:43:46;11.65;;;4.20;;
62848;SDS011;48941;49.516;8.286;2024-01-27T06:46:14;10.75;;;4.20;;
62848;SDS011;48941;49.516;8.286;2024-01-27T06:48:41;11.00;;;4.78;;
62848;SDS011;48941;49.516;8.286;2024-01-27T06:51:10;13.57;;;5.78;;
62848;SDS011;48941;49.516;8.286;2024-01-27T06:53:37;11.80;;;5.63;;
62848;SDS011;48941;49.516;8.286;2024-01-27T06:56:06;8.57;;;5.05;;
62848;SDS011;48941;49.516;8.286;2024-01-27T06:58:34;12.00;;;5.53;;
62848;SDS011;48941;49.516;8.286;2024-01-27T07:01:04;10.20;;;4.75;;
62848;SDS011;48941;49.516;8.286;2024-01-27T07:03:35;12.07;;;4.55;;
62848;SDS011;48941;49.516;8.286;2024-01-27T07:06:03;8.43;;;4.43;;
62848;SDS011;48941;49.516;8.286;2024-01-27T07:08:31;10.77;;;4.30;;
62848;SDS011;48941;49.516;8.286;2024-01-27T07:11:03;9.77;;;4.15;;
62848;SDS011;48941;49.516;8.286;2024-01-27T07:13:32;16.00;;;4.55;;
62848;SDS011;48941;49.516;8.286;2024-01-27T07:16:00;10.07;;;4.20;;
62848;SDS011;48941;49.516;8.286;2024-01-27T07:18:29;15.40;;;4.25;;
62848;SDS011;48941;49.516;8.286;2024-01-27T07:20:57;12.93;;;4.22;;
62848;SDS011;48941;49.516;8.286;2024-01-27T07:23:26;8.93;;;4.30;;
62848;SDS011;48941;49.516;8.286;2024-01-27T07:25:53;13.27;;;4.35;;
62848;SDS011;48941;49.516;8.286;2024-01-27T07:28:22;9.45;;;4.40;;
62848;SDS011;48941;49.516;8.286;2024-01-27T07:30:49;8.52;;;5.03;;
62848;SDS011;48941;49.516;8.286;2024-01-27T07:33:17;11.73;;;5.15;;
62848;SDS011;48941;49.516;8.286;2024-01-27T07:35:47;15.32;;;5.50;;
62848;SDS011;48941;49.516;8.286;2024-01-27T07:38:14;19.05;;;8.90;;
62848;SDS011;48941;49.516;8.286;2024-01-27T07:40:42;24.80;;;10.75;;
62848;SDS011;48941;49.516;8.286;2024-01-27T07:43:10;15.85;;;6.80;;
62848;SDS011;48941;49.516;8.286;2024-01-27T07:45:37;11.80;;;6.85;;
62848;SDS011;48941;49.516;8.286;2024-01-27T07:48:06;14.82;;;6.47;;
62848;SDS011;48941;49.516;8.286;2024-01-27T07:50:34;11.52;;;6.25;;
62848;SDS011;48941;49.516;8.286;2024-01-27T07:53:03;11.35;;;6.70;;
62848;SDS011;48941;49.516;8.286;2024-01-27T07:55:32;14.65;;;6.97;;
62848;SDS011;48941;49.516;8.286;2024-01-27T07:58:00;13.90;;;6.40;;
62848;SDS011;48941;49.516;8.286;2024-01-27T08:00:27;12.43;;;6.13;;
62848;SDS011;48941;49.516;8.286;2024-01-27T08:02:55;11.25;;;6.63;;
62848;SDS011;48941;49.516;8.286;2024-01-27T08:05:23;16.48;;;6.97;;
62848;SDS011;48941;49.516;8.286;2024-01-27T08:07:51;20.55;;;7.82;;
62848;SDS011;48941;49.516;8.286;2024-01-27T08:10:20;15.35;;;6.55;;
62848;SDS011;48941;49.516;8.286;2024-01-27T08:12:49;17.73;;;8.50;;
62848;SDS011;48941;49.516;8.286;2024-01-27T08:15:17;22.48;;;8.93;;
62848;SDS011;48941;49.516;8.286;2024-01-27T08:17:45;13.50;;;6.75;;
62848;SDS011;48941;49.516;8.286;2024-01-27T08:20:13;15.20;;;6.97;;
62848;SDS011;48941;49.516;8.286;2024-01-27T08:22:41;15.02;;;6.90;;
62848;SDS011;48941;49.516;8.286;2024-01-27T08:25:09;13.23;;;8.43;;
62848;SDS011;48941;49.516;8.286;2024-01-27T08:27:38;20.13;;;9.20;;
62848;SDS011;48941;49.516;8.286;2024-01-27T08:30:06;20.30;;;7.03;;
62848;SDS011;48941;49.516;8.286;2024-01-27T08:32:36;14.82;;;5.82;;
62848;SDS011;48941;49.516;8.286;2024-01-27T08:35:04;11.68;;;6.43;;
62848;SDS011;48941;49.516;8.286;2024-01-27T08:37:36;15.13;;;6.28;;
62848;SDS011;48941;49.516;8.286;2024-01-27T08:40:05;17.05;;;6.78;;
62848;SDS011;48941;49.516;8.286;2024-01-27T08:42:35;13.25;;;6.47;;
62848;SDS011;48941;49.516;8.286;2024-01-27T08:45:04;19.77;;;7.25;;
62848;SDS011;48941;49.516;8.286;2024-01-27T08:47:33;14.98;;;7.18;;
62848;SDS011;48941;49.516;8.286;2024-01-27T08:50:01;11.45;;;6.80;;
62848;SDS011;48941;49.516;8.286;2024-01-27T08:52:29;18.25;;;7.53;;
62848;SDS011;48941;49.516;8.286;2024-01-27T08:54:59;15.93;;;7.15;;
62848;SDS011;48941;49.516;8.286;2024-01-27T08:57:26;12.90;;;6.63;;
62848;SDS011;48941;49.516;8.286;2024-01-27T08:59:54;12.35;;;6.53;;
62848;SDS011;48941;49.516;8.286;2024-01-27T09:02:23;16.67;;;7.57;;
62848;SDS011;48941;49.516;8.286;2024-01-27T09:04:51;15.50;;;7.57;;
62848;SDS011;48941;49.516;8.286;2024-01-27T09:07:19;16.27;;;7.40;;
62848;SDS011;48941;49.516;8.286;2024-01-27T09:09:47;14.60;;;6.65;;
62848;SDS011;48941;49.516;8.286;2024-01-27T09:12:15;15.32;;;7.13;;
62848;SDS011;48941;49.516;8.286;2024-01-27T09:14:43;15.18;;;7.00;;
62848;SDS011;48941;49.516;8.286;2024-01-27T09:17:10;16.10;;;6.60;;
62848;SDS011;48941;49.516;8.286;2024-01-27T09:19:40;16.35;;;7.25;;
62848;SDS011;48941;49.516;8.286;2024-01-27T09:22:10;16.33;;;6.20;;
62848;SDS011;48941;49.516;8.286;2024-01-27T09:24:38;13.13;;;5.95;;
62848;SDS011;48941;49.516;8.286;2024-01-27T09:27:07;16.48;;;7.22;;
62848;SDS011;48941;49.516;8.286;2024-01-27T09:29:35;17.00;;;8.02;;
62848;SDS011;48941;49.516;8.286;2024-01-27T09:32:03;16.50;;;7.60;;
62848;SDS011;48941;49.516;8.286;2024-01-27T09:34:32;12.98;;;6.28;;
62848;SDS011;48941;49.516;8.286;2024-01-27T09:37:02;19.67;;;6.05;;
62848;SDS011;48941;49.516;8.286;2024-01-27T09:39:31;11.85;;;5.57;;
62848;SDS011;48941;49.516;8.286;2024-01-27T09:41:59;14.75;;;5.72;;
62848;SDS011;48941;49.516;8.286;2024-01-27T09:44:32;19.80;;;7.22;;
62848;SDS011;48941;49.516;8.286;2024-01-27T09:47:02;18.20;;;8.38;;
62848;SDS011;48941;49.516;8.286;2024-01-27T09:49:30;12.02;;;5.03;;
62848;SDS011;48941;49.516;8.286;2024-01-27T09:51:59;13.77;;;6.28;;
62848;SDS011;48941;49.516;8.286;2024-01-27T09:54:28;17.15;;;6.22;;
62848;SDS011;48941;49.516;8.286;2024-01-27T09:56:56;9.25;;;5.03;;
62848;SDS011;48941;49.516;8.286;2024-01-27T09:59:25;10.63;;;5.45;;
62848;SDS011;48941;49.516;8.286;2024-01-27T10:01:53;13.15;;;5.90;;
62848;SDS011;48941;49.516;8.286;2024-01-27T10:04:24;14.63;;;6.07;;
62848;SDS011;48941;49.516;8.286;2024-01-27T10:06:52;11.40;;;5.82;;
62848;SDS011;48941;49.516;8.286;2024-01-27T10:09:20;12.48;;;5.28;;
62848;SDS011;48941;49.516;8.286;2024-01-27T10:11:49;13.55;;;5.70;;
62848;SDS011;48941;49.516;8.286;2024-01-27T10:14:17;16.00;;;7.07;;
62848;SDS011;48941;49.516;8.286;2024-01-27T10:16:45;19.70;;;4.88;;
62848;SDS011;48941;49.516;8.286;2024-01-27T10:19:15;9.85;;;4.45;;
62848;SDS011;48941;49.516;8.286;2024-01-27T10:21:44;10.18;;;5.30;;
62848;SDS011;48941;49.516;8.286;2024-01-27T10:24:13;8.32;;;5.47;;
62848;SDS011;48941;49.516;8.286;2024-01-27T10:26:40;9.35;;;5.70;;
62848;SDS011;48941;49.516;8.286;2024-01-27T10:29:10;12.18;;;5.47;;
62848;SDS011;48941;49.516;8.286;2024-01-27T10:31:38;9.77;;;5.45;;
62848;SDS011;48941;49.516;8.286;2024-01-27T10:34:06;14.05;;;6.35;;
62848;SDS011;48941;49.516;8.286;2024-01-27T10:36:41;12.43;;;5.57;;
62848;SDS011;48941;49.516;8.286;2024-01-27T10:39:18;11.07;;;6.00;;
62848;SDS011;48941;49.516;8.286;2024-01-27T10:41:48;15.30;;;6.13;;
62848;SDS011;48941;49.516;8.286;2024-01-27T10:44:19;11.43;;;5.70;;
62848;SDS011;48941;49.516;8.286;2024-01-27T10:46:48;13.68;;;5.25;;
62848;SDS011;48941;49.516;8.286;2024-01-27T10:49:17;13.20;;;5.75;;
62848;SDS011;48941;49.516;8.286;2024-01-27T10:51:55;18.55;;;7.70;;
62848;SDS011;48941;49.516;8.286;2024-01-27T10:54:25;13.65;;;6.07;;
62848;SDS011;48941;49.516;8.286;2024-01-27T10:56:54;15.95;;;6.78;;
62848;SDS011;48941;49.516;8.286;2024-01-27T10:59:27;16.45;;;6.75;;
62848;SDS011;48941;49.516;8.286;2024-01-27T11:01:55;13.98;;;5.75;;
62848;SDS011;48941;49.516;8.286;2024-01-27T11:04:23;16.88;;;6.03;;
62848;SDS011;48941;49.516;8.286;2024-01-27T11:06:52;9.20;;;5.78;;
62848;SDS011;48941;49.516;8.286;2024-01-27T11:09:21;22.25;;;7.28;;
62848;SDS011;48941;49.516;8.286;2024-01-27T11:11:49;14.50;;;6.65;;
62848;SDS011;48941;49.516;8.286;2024-01-27T11:14:18;13.07;;;5.50;;
62848;SDS011;48941;49.516;8.286;2024-01-27T11:16:47;13.45;;;5.82;;
62848;SDS011;48941;49.516;8.286;2024-01-27T11:19:16;16.85;;;5.78;;
62848;SDS011;48941;49.516;8.286;2024-01-27T11:21:44;15.90;;;6.05;;
62848;SDS011;48941;49.516;8.286;2024-01-27T11:24:13;14.75;;;5.68;;
62848;SDS011;48941;49.516;8.286;2024-01-27T11:26:42;11.27;;;5.95;;
62848;SDS011;48941;49.516;8.286;2024-01-27T11:29:10;12.57;;;5.50;;
62848;SDS011;48941;49.516;8.286;2024-01-27T11:31:47;15.98;;;5.70;;
62848;SDS011;48941;49.516;8.286;2024-01-27T11:34:17;15.98;;;5.93;;
62848;SDS011;48941;49.516;8.286;2024-01-27T11:36:46;10.25;;;5.63;;
62848;SDS011;48941;49.516;8.286;2024-01-27T11:39:23;15.18;;;5.55;;
62848;SDS011;48941;49.516;8.286;2024-01-27T11:42:03;14.85;;;5.47;;
62848;SDS011;48941;49.516;8.286;2024-01-27T11:44:33;12.30;;;5.28;;
62848;SDS011;48941;49.516;8.286;2024-01-27T11:47:03;9.30;;;4.38;;
62848;SDS011;48941;49.516;8.286;2024-01-27T11:49:32;14.73;;;4.85;;
62848;SDS011;48941;49.516;8.286;2024-01-27T11:52:00;8.13;;;3.63;;
62848;SDS011;48941;49.516;8.286;2024-01-27T11:54:29;31.92;;;8.45;;
62848;SDS011;48941;49.516;8.286;2024-01-27T11:56:57;12.32;;;4.28;;
62848;SDS011;48941;49.516;8.286;2024-01-27T11:59:25;17.77;;;4.10;;
62848;SDS011;48941;49.516;8.286;2024-01-27T12:01:52;13.90;;;3.35;;
62848;SDS011;48941;49.516;8.286;2024-01-27T12:04:23;15.75;;;4.15;;
62848;SDS011;48941;49.516;8.286;2024-01-27T12:06:51;9.80;;;3.28;;
62848;SDS011;48941;49.516;8.286;2024-01-27T12:09:20;14.77;;;4.13;;
62848;SDS011;48941;49.516;8.286;2024-01-27T12:11:49;11.48;;;3.47;;
62848;SDS011;48941;49.516;8.286;2024-01-27T12:14:16;14.88;;;3.10;;
62848;SDS011;48941;49.516;8.286;2024-01-27T12:16:44;11.75;;;3.33;;
62848;SDS011;48941;49.516;8.286;2024-01-27T12:19:14;12.63;;;3.80;;
62848;SDS011;48941;49.516;8.286;2024-01-27T12:21:48;12.32;;;3.40;;
62848;SDS011;48941;49.516;8.286;2024-01-27T12:24:16;10.40;;;3.60;;
62848;SDS011;48941;49.516;8.286;2024-01-27T12:26:48;7.57;;;3.10;;
62848;SDS011;48941;49.516;8.286;2024-01-27T12:29:15;10.18;;;3.03;;
62848;SDS011;48941;49.516;8.286;2024-01-27T12:31:44;10.25;;;3.00;;
62848;SDS011;48941;49.516;8.286;2024-01-27T12:34:12;10.88;;;3.85;;
62848;SDS011;48941;49.516;8.286;2024-01-27T12:36:42;6.50;;;2.63;;
62848;SDS011;48941;49.516;8.286;2024-01-27T12:39:11;8.50;;;2.88;;
62848;SDS011;48941;49.516;8.286;2024-01-27T12:41:40;7.07;;;2.92;;
62848;SDS011;48941;49.516;8.286;2024-01-27T12:44:08;11.48;;;3.47;;
62848;SDS011;48941;49.516;8.286;2024-01-27T12:46:35;12.40;;;3.80;;
62848;SDS011;48941;49.516;8.286;2024-01-27T12:49:03;10.02;;;3.10;;
62848;SDS011;48941;49.516;8.286;2024-01-27T12:51:32;12.75;;;3.42;;
62848;SDS011;48941;49.516;8.286;2024-01-27T12:54:00;12.32;;;3.08;;
62848;SDS011;48941;49.516;8.286;2024-01-27T12:56:30;9.93;;;2.90;;
62848;SDS011;48941;49.516;8.286;2024-01-27T12:58:57;9.45;;;3.28;;
62848;SDS011;48941;49.516;8.286;2024-01-27T13:01:25;9.20;;;2.95;;
62848;SDS011;48941;49.516;8.286;2024-01-27T13:03:53;12.32;;;2.92;;
62848;SDS011;48941;49.516;8.286;2024-01-27T13:06:21;8.93;;;2.55;;
62848;SDS011;48941;49.516;8.286;2024-01-27T13:08:50;8.07;;;2.67;;
62848;SDS011;48941;49.516;8.286;2024-01-27T13:11:19;9.60;;;2.65;;
62848;SDS011;48941;49.516;8.286;2024-01-27T13:13:49;10.80;;;2.80;;
62848;SDS011;48941;49.516;8.286;2024-01-27T13:16:16;13.43;;;3.15;;
62848;SDS011;48941;49.516;8.286;2024-01-27T13:18:44;8.07;;;2.67;;
62848;SDS011;48941;49.516;8.286;2024-01-27T13:21:13;10.63;;;3.20;;
62848;SDS011;48941;49.516;8.286;2024-01-27T13:23:41;10.32;;;2.97;;
62848;SDS011;48941;49.516;8.286;2024-01-27T13:26:08;10.90;;;3.00;;
62848;SDS011;48941;49.516;8.286;2024-01-27T13:28:45;15.48;;;3.47;;
62848;SDS011;48941;49.516;8.286;2024-01-27T13:31:14;13.23;;;3.35;;
62848;SDS011;48941;49.516;8.286;2024-01-27T13:33:42;8.63;;;3.25;;
62848;SDS011;48941;49.516;8.286;2024-01-27T13:36:11;8.63;;;3.67;;
62848;SDS011;48941;49.516;8.286;2024-01-27T13:38:39;13.05;;;3.58;;
62848;SDS011;48941;49.516;8.286;2024-01-27T13:41:06;11.63;;;3.80;;
62848;SDS011;48941;49.516;8.286;2024-01-27T13:43:34;10.25;;;4.60;;
62848;SDS011;48941;49.516;8.286;2024-01-27T13:46:02;12.68;;;4.07;;
62848;SDS011;48941;49.516;8.286;2024-01-27T13:48:31;11.27;;;4.47;;
62848;SDS011;48941;49.516;8.286;2024-01-27T13:51:00;9.93;;;3.60;;
62848;SDS011;48941;49.516;8.286;2024-01-27T13:53:27;20.55;;;4.30;;
62848;SDS011;48941;49.516;8.286;2024-01-27T13:56:11;15.82;;;5.32;;
62848;SDS011;48941;49.516;8.286;2024-01-27T13:58:39;12.43;;;4.03;;
62848;SDS011;48941;49.516;8.286;2024-01-27T14:01:07;8.82;;;4.00;;
62848;SDS011;48941;49.516;8.286;2024-01-27T14:03:37;14.30;;;3.97;;
62848;SDS011;48941;49.516;8.286;2024-01-27T14:06:05;8.45;;;3.50;;
62848;SDS011;48941;49.516;8.286;2024-01-27T14:08:33;6.97;;;3.40;;
62848;SDS011;48941;49.516;8.286;2024-01-27T14:11:01;10.25;;;3.08;;
62848;SDS011;48941;49.516;8.286;2024-01-27T14:13:29;12.23;;;3.60;;
62848;SDS011;48941;49.516;8.286;2024-01-27T14:16:00;7.32;;;3.17;;
62848;SDS011;48941;49.516;8.286;2024-01-27T14:18:28;13.90;;;4.18;;
62848;SDS011;48941;49.516;8.286;2024-01-27T14:20:59;11.75;;;5.20;;
62848;SDS011;48941;49.516;8.286;2024-01-27T14:23:27;12.15;;;4.55;;
62848;SDS011;48941;49.516;8.286;2024-01-27T14:25:55;13.82;;;4.20;;
62848;SDS011;48941;49.516;8.286;2024-01-27T14:28:23;20.98;;;9.73;;
62848;SDS011;48941;49.516;8.286;2024-01-27T14:30:51;15.15;;;8.60;;
62848;SDS011;48941;49.516;8.286;2024-01-27T14:33:19;14.55;;;6.07;;
62848;SDS011;48941;49.516;8.286;2024-01-27T14:35:47;14.02;;;5.40;;
62848;SDS011;48941;49.516;8.286;2024-01-27T14:38:17;11.82;;;5.75;;
62848;SDS011;48941;49.516;8.286;2024-01-27T14:40:44;9.88;;;4.90;;
62848;SDS011;48941;49.516;8.286;2024-01-27T14:43:14;14.75;;;5.00;;
62848;SDS011;48941;49.516;8.286;2024-01-27T14:45:44;13.52;;;5.40;;